AEZ2115 LIRF-LICB
Flight info
| Callsign | AEZ2115 |
|---|---|
| Flight time | 1h 10m |
| Altitude | 27000 |
| Route | RIFFI DCT BEROL DCT ROSAS DCT LIBRO |
| Aircraft | B737/M-SDE2E3FGHIRWXY/LB1 |
Departure
| Time | 2026-05-07 07:05 |
|---|---|
| Airport | Rome–Fiumicino Leonardo da Vinci International Airport (LIRF) |
Arrival
| Time | 2026-05-07 08:15 |
|---|---|
| Airport | Comiso Airport (LICB) |
| Time | Latitude | Longitude | Altitude | Speed | Heading |
|---|---|---|---|---|---|
| 2026-05-07 06:50 | 41.79613 | 12.25945 | 14 ft | 0 kts | 296° |
| 2026-05-07 06:56 | 41.79612 | 12.25947 | 14 ft | 2 kts | 296° |
| 2026-05-07 06:56 | 41.79601 | 12.25978 | 15 ft | 4 kts | 296° |
| 2026-05-07 06:57 | 41.79588 | 12.26007 | 15 ft | 4 kts | 327° |
| 2026-05-07 06:57 | 41.79566 | 12.26013 | 15 ft | 3 kts | 23° |
| 2026-05-07 06:57 | 41.79567 | 12.26014 | 15 ft | 3 kts | 25° |
| 2026-05-07 06:57 | 41.79592 | 12.26030 | 14 ft | 4 kts | 25° |
| 2026-05-07 06:58 | 41.79616 | 12.26045 | 14 ft | 4 kts | 25° |
| 2026-05-07 06:58 | 41.79641 | 12.26060 | 14 ft | 4 kts | 25° |
| 2026-05-07 06:58 | 41.79665 | 12.26076 | 14 ft | 4 kts | 25° |
| 2026-05-07 06:58 | 41.79686 | 12.26089 | 16 ft | 1 kts | 25° |
| 2026-05-07 07:01 | 41.79719 | 12.26106 | 14 ft | 14 kts | 17° |
| 2026-05-07 07:01 | 41.79832 | 12.26168 | 14 ft | 13 kts | 24° |
| 2026-05-07 07:01 | 41.79922 | 12.26223 | 14 ft | 15 kts | 25° |
| 2026-05-07 07:02 | 41.80026 | 12.26290 | 15 ft | 18 kts | 24° |
| 2026-05-07 07:02 | 41.80143 | 12.26361 | 14 ft | 20 kts | 24° |
| 2026-05-07 07:02 | 41.80280 | 12.26400 | 14 ft | 21 kts | 349° |
| 2026-05-07 07:02 | 41.80424 | 12.26414 | 15 ft | 23 kts | 51° |
| 2026-05-07 07:03 | 41.80484 | 12.26608 | 14 ft | 23 kts | 70° |
| 2026-05-07 07:03 | 41.80542 | 12.26815 | 14 ft | 24 kts | 69° |
| 2026-05-07 07:03 | 41.80617 | 12.27022 | 14 ft | 25 kts | 37° |
| 2026-05-07 07:03 | 41.80662 | 12.27046 | 14 ft | 0 kts | 10° |
| 2026-05-07 07:04 | 41.80695 | 12.27051 | 14 ft | 10 kts | 5° |
| 2026-05-07 07:04 | 41.80788 | 12.27053 | 14 ft | 17 kts | 348° |
| 2026-05-07 07:04 | 41.80925 | 12.26986 | 15 ft | 25 kts | 330° |
| 2026-05-07 07:05 | 41.80936 | 12.26844 | 13 ft | 27 kts | 249° |
| 2026-05-07 07:05 | 41.80756 | 12.26194 | 19 ft | 120 kts | 250° |
| 2026-05-07 07:05 | 41.80352 | 12.24815 | 89 ft | 191 kts | 248° |
| 2026-05-07 07:05 | 41.79926 | 12.23069 | 1080 ft | 192 kts | 253° |
| 2026-05-07 07:06 | 41.79507 | 12.21376 | 2239 ft | 195 kts | 238° |
| 2026-05-07 07:06 | 41.78834 | 12.19943 | 3495 ft | 179 kts | 244° |
| 2026-05-07 07:06 | 41.78734 | 12.18290 | 4324 ft | 184 kts | 282° |
| 2026-05-07 07:06 | 41.78929 | 12.16572 | 5139 ft | 188 kts | 269° |
| 2026-05-07 07:07 | 41.78830 | 12.14843 | 6014 ft | 188 kts | 254° |
| 2026-05-07 07:07 | 41.78055 | 12.13474 | 6760 ft | 190 kts | 213° |
| 2026-05-07 07:07 | 41.76957 | 12.12486 | 7470 ft | 191 kts | 226° |
| 2026-05-07 07:07 | 41.76050 | 12.11199 | 8167 ft | 191 kts | 226° |
| 2026-05-07 07:08 | 41.75073 | 12.09984 | 8635 ft | 203 kts | 225° |
| 2026-05-07 07:08 | 41.73994 | 12.08663 | 9052 ft | 214 kts | 225° |
| 2026-05-07 07:08 | 41.72835 | 12.07237 | 9354 ft | 236 kts | 225° |
| 2026-05-07 07:08 | 41.71590 | 12.05700 | 9685 ft | 256 kts | 224° |
| 2026-05-07 07:09 | 41.70011 | 12.04441 | 10139 ft | 279 kts | 197° |
| 2026-05-07 07:09 | 41.68005 | 12.04344 | 10648 ft | 300 kts | 177° |
| 2026-05-07 07:09 | 41.65877 | 12.04495 | 11105 ft | 313 kts | 186° |
| 2026-05-07 07:09 | 41.63654 | 12.04309 | 11575 ft | 327 kts | 188° |
| 2026-05-07 07:10 | 41.61432 | 12.03578 | 12007 ft | 334 kts | 210° |
| 2026-05-07 07:10 | 41.59534 | 12.01786 | 12511 ft | 336 kts | 219° |
| 2026-05-07 07:10 | 41.57466 | 12.00342 | 12910 ft | 342 kts | 195° |
| 2026-05-07 07:10 | 41.55081 | 12.00390 | 13396 ft | 351 kts | 167° |
| 2026-05-07 07:11 | 41.52922 | 12.01948 | 13870 ft | 361 kts | 140° |
| 2026-05-07 07:11 | 41.51462 | 12.04698 | 14298 ft | 371 kts | 115° |
| 2026-05-07 07:11 | 41.50693 | 12.08008 | 14771 ft | 375 kts | 108° |
| 2026-05-07 07:11 | 41.49688 | 12.11198 | 15147 ft | 374 kts | 129° |
| 2026-05-07 07:12 | 41.47794 | 12.13472 | 15606 ft | 366 kts | 155° |
| 2026-05-07 07:12 | 41.45450 | 12.14705 | 16096 ft | 363 kts | 164° |
| 2026-05-07 07:12 | 41.43076 | 12.15920 | 16545 ft | 367 kts | 161° |
| 2026-05-07 07:12 | 41.40921 | 12.17103 | 16960 ft | 369 kts | 161° |
| 2026-05-07 07:13 | 41.38546 | 12.18429 | 17423 ft | 371 kts | 161° |
| 2026-05-07 07:13 | 41.36201 | 12.19743 | 17887 ft | 373 kts | 161° |
| 2026-05-07 07:13 | 41.33808 | 12.21083 | 18358 ft | 374 kts | 161° |
| 2026-05-07 07:13 | 41.31404 | 12.22426 | 18752 ft | 375 kts | 161° |
| 2026-05-07 07:14 | 41.28988 | 12.23772 | 19185 ft | 377 kts | 161° |
| 2026-05-07 07:14 | 41.26599 | 12.25099 | 19604 ft | 378 kts | 161° |
| 2026-05-07 07:14 | 41.24160 | 12.26452 | 20045 ft | 382 kts | 161° |
| 2026-05-07 07:14 | 41.21651 | 12.27840 | 20501 ft | 389 kts | 162° |
| 2026-05-07 07:15 | 41.19171 | 12.29210 | 20947 ft | 394 kts | 162° |
| 2026-05-07 07:15 | 41.16635 | 12.30612 | 21397 ft | 396 kts | 162° |
| 2026-05-07 07:15 | 41.14084 | 12.32022 | 21863 ft | 398 kts | 162° |
| 2026-05-07 07:15 | 41.11522 | 12.33436 | 22329 ft | 400 kts | 162° |
| 2026-05-07 07:16 | 41.08949 | 12.34856 | 22785 ft | 401 kts | 161° |
| 2026-05-07 07:16 | 41.06366 | 12.36280 | 23264 ft | 403 kts | 162° |
| 2026-05-07 07:16 | 41.03773 | 12.37708 | 23727 ft | 405 kts | 162° |
| 2026-05-07 07:16 | 41.01162 | 12.39143 | 24146 ft | 408 kts | 162° |
| 2026-05-07 07:17 | 40.98529 | 12.40589 | 24562 ft | 411 kts | 162° |
| 2026-05-07 07:17 | 40.95875 | 12.42046 | 24981 ft | 414 kts | 162° |
| 2026-05-07 07:17 | 40.93211 | 12.43507 | 25411 ft | 416 kts | 162° |
| 2026-05-07 07:17 | 40.90530 | 12.44977 | 25852 ft | 418 kts | 162° |
| 2026-05-07 07:18 | 40.87839 | 12.46450 | 26278 ft | 419 kts | 162° |
| 2026-05-07 07:18 | 40.85141 | 12.47927 | 26726 ft | 421 kts | 162° |
| 2026-05-07 07:18 | 40.82428 | 12.49409 | 27011 ft | 426 kts | 162° |
| 2026-05-07 07:18 | 40.79662 | 12.50917 | 27008 ft | 433 kts | 162° |
| 2026-05-07 07:19 | 40.76868 | 12.52440 | 27014 ft | 433 kts | 162° |
| 2026-05-07 07:19 | 40.74097 | 12.53954 | 27006 ft | 429 kts | 162° |
| 2026-05-07 07:19 | 40.71363 | 12.55447 | 27008 ft | 427 kts | 162° |
| 2026-05-07 07:19 | 40.68618 | 12.56942 | 27032 ft | 428 kts | 162° |
| 2026-05-07 07:20 | 40.65861 | 12.58440 | 27013 ft | 430 kts | 162° |
| 2026-05-07 07:20 | 40.63086 | 12.59946 | 27008 ft | 431 kts | 162° |
| 2026-05-07 07:20 | 40.60310 | 12.61452 | 27012 ft | 432 kts | 162° |
| 2026-05-07 07:20 | 40.57529 | 12.62959 | 27013 ft | 433 kts | 162° |
| 2026-05-07 07:21 | 40.54734 | 12.64473 | 27012 ft | 434 kts | 162° |
| 2026-05-07 07:21 | 40.51947 | 12.65982 | 27009 ft | 434 kts | 162° |
| 2026-05-07 07:21 | 40.49147 | 12.67496 | 27009 ft | 434 kts | 162° |
| 2026-05-07 07:21 | 40.46354 | 12.69006 | 27009 ft | 434 kts | 162° |
| 2026-05-07 07:22 | 40.43570 | 12.70509 | 27007 ft | 433 kts | 162° |
| 2026-05-07 07:22 | 40.40779 | 12.72014 | 26996 ft | 433 kts | 162° |
| 2026-05-07 07:22 | 40.37989 | 12.73517 | 27003 ft | 433 kts | 162° |
| 2026-05-07 07:22 | 40.35201 | 12.75018 | 27008 ft | 433 kts | 162° |
| 2026-05-07 07:23 | 40.32415 | 12.76516 | 27007 ft | 434 kts | 162° |
| 2026-05-07 07:23 | 40.29625 | 12.78015 | 26995 ft | 434 kts | 162° |
| 2026-05-07 07:23 | 40.26826 | 12.79517 | 27005 ft | 434 kts | 162° |
| 2026-05-07 07:23 | 40.24027 | 12.81018 | 27009 ft | 435 kts | 162° |
| 2026-05-07 07:24 | 40.21227 | 12.82519 | 27005 ft | 435 kts | 162° |
| 2026-05-07 07:24 | 40.18460 | 12.84000 | 26983 ft | 436 kts | 162° |
| 2026-05-07 07:24 | 40.15646 | 12.85505 | 26993 ft | 437 kts | 162° |
| 2026-05-07 07:24 | 40.12833 | 12.87008 | 27002 ft | 438 kts | 162° |
| 2026-05-07 07:25 | 40.07179 | 12.90026 | 26999 ft | 440 kts | 162° |
| 2026-05-07 07:25 | 40.04345 | 12.91536 | 27002 ft | 441 kts | 162° |
| 2026-05-07 07:25 | 40.01512 | 12.93045 | 26999 ft | 441 kts | 162° |
| 2026-05-07 07:26 | 39.98688 | 12.94548 | 26993 ft | 441 kts | 162° |
| 2026-05-07 07:26 | 39.95850 | 12.96057 | 26992 ft | 441 kts | 162° |
| 2026-05-07 07:26 | 39.93006 | 12.97568 | 26996 ft | 441 kts | 162° |
| 2026-05-07 07:26 | 39.90167 | 12.99074 | 26992 ft | 440 kts | 162° |
| 2026-05-07 07:27 | 39.87330 | 13.00578 | 26988 ft | 440 kts | 162° |
| 2026-05-07 07:27 | 39.84596 | 13.02027 | 26991 ft | 439 kts | 162° |
| 2026-05-07 07:27 | 39.81658 | 13.03582 | 26989 ft | 439 kts | 162° |
| 2026-05-07 07:27 | 39.78830 | 13.05077 | 26991 ft | 439 kts | 162° |
| 2026-05-07 07:28 | 39.76005 | 13.06569 | 26987 ft | 439 kts | 162° |
| 2026-05-07 07:28 | 39.73176 | 13.08062 | 26969 ft | 438 kts | 163° |
| 2026-05-07 07:28 | 39.70352 | 13.09551 | 26975 ft | 439 kts | 163° |
| 2026-05-07 07:28 | 39.67526 | 13.11039 | 26986 ft | 439 kts | 163° |
| 2026-05-07 07:29 | 39.64704 | 13.12524 | 26987 ft | 439 kts | 163° |
| 2026-05-07 07:29 | 39.61885 | 13.14006 | 26972 ft | 440 kts | 163° |
| 2026-05-07 07:29 | 39.59049 | 13.15495 | 26980 ft | 440 kts | 163° |
| 2026-05-07 07:29 | 39.56205 | 13.16988 | 26986 ft | 441 kts | 163° |
| 2026-05-07 07:30 | 39.53364 | 13.18478 | 26980 ft | 441 kts | 163° |
| 2026-05-07 07:30 | 39.50515 | 13.19972 | 26979 ft | 442 kts | 163° |
| 2026-05-07 07:30 | 39.47658 | 13.21468 | 26966 ft | 442 kts | 163° |
| 2026-05-07 07:30 | 39.44808 | 13.22959 | 26968 ft | 443 kts | 163° |
| 2026-05-07 07:31 | 39.41952 | 13.24452 | 26968 ft | 443 kts | 163° |
| 2026-05-07 07:31 | 39.39093 | 13.25945 | 26971 ft | 443 kts | 163° |
| 2026-05-07 07:31 | 39.36239 | 13.27434 | 26971 ft | 443 kts | 163° |
| 2026-05-07 07:31 | 39.33382 | 13.28924 | 26966 ft | 443 kts | 163° |
| 2026-05-07 07:32 | 39.30528 | 13.30410 | 26966 ft | 442 kts | 163° |
| 2026-05-07 07:32 | 39.27673 | 13.31896 | 26968 ft | 442 kts | 163° |
| 2026-05-07 07:32 | 39.24818 | 13.33380 | 26943 ft | 442 kts | 164° |
| 2026-05-07 07:32 | 39.21972 | 13.34859 | 26963 ft | 442 kts | 165° |
| 2026-05-07 07:33 | 39.19117 | 13.36341 | 26962 ft | 442 kts | 165° |
| 2026-05-07 07:33 | 39.16266 | 13.37819 | 26956 ft | 442 kts | 165° |
| 2026-05-07 07:33 | 39.13415 | 13.39296 | 26955 ft | 442 kts | 165° |
| 2026-05-07 07:33 | 39.10564 | 13.40771 | 26955 ft | 442 kts | 165° |
| 2026-05-07 07:34 | 39.07708 | 13.42248 | 26956 ft | 442 kts | 165° |
| 2026-05-07 07:34 | 39.04856 | 13.43723 | 26950 ft | 442 kts | 165° |
| 2026-05-07 07:34 | 39.02004 | 13.45195 | 26932 ft | 442 kts | 165° |
| 2026-05-07 07:34 | 38.99156 | 13.46665 | 26937 ft | 442 kts | 165° |
| 2026-05-07 07:35 | 38.96312 | 13.48131 | 26936 ft | 441 kts | 165° |
| 2026-05-07 07:35 | 38.93462 | 13.49599 | 26922 ft | 441 kts | 165° |
| 2026-05-07 07:35 | 38.90612 | 13.51066 | 26929 ft | 441 kts | 165° |
| 2026-05-07 07:35 | 38.87763 | 13.52531 | 26932 ft | 441 kts | 165° |
| 2026-05-07 07:36 | 38.84958 | 13.54002 | 26934 ft | 443 kts | 163° |
| 2026-05-07 07:36 | 38.82172 | 13.55879 | 26942 ft | 449 kts | 156° |
| 2026-05-07 07:36 | 38.79530 | 13.57931 | 26940 ft | 451 kts | 155° |
| 2026-05-07 07:36 | 38.76863 | 13.60045 | 26915 ft | 451 kts | 155° |
| 2026-05-07 07:37 | 38.74197 | 13.62154 | 26920 ft | 451 kts | 155° |
| 2026-05-07 07:37 | 38.71522 | 13.64251 | 26930 ft | 450 kts | 155° |
| 2026-05-07 07:37 | 38.68841 | 13.66331 | 26933 ft | 450 kts | 155° |
| 2026-05-07 07:37 | 38.66161 | 13.68393 | 26929 ft | 450 kts | 156° |
| 2026-05-07 07:38 | 38.63476 | 13.70447 | 26925 ft | 449 kts | 156° |
| 2026-05-07 07:38 | 38.60793 | 13.72492 | 26925 ft | 449 kts | 156° |
| 2026-05-07 07:38 | 38.58107 | 13.74536 | 26923 ft | 449 kts | 156° |
| 2026-05-07 07:38 | 38.55428 | 13.76572 | 26924 ft | 449 kts | 156° |
| 2026-05-07 07:39 | 38.52739 | 13.78615 | 26899 ft | 449 kts | 156° |
| 2026-05-07 07:39 | 38.50054 | 13.80654 | 26925 ft | 449 kts | 156° |
| 2026-05-07 07:39 | 38.47367 | 13.82691 | 26922 ft | 450 kts | 156° |
| 2026-05-07 07:39 | 38.44685 | 13.84724 | 26928 ft | 451 kts | 156° |
| 2026-05-07 07:40 | 38.41998 | 13.86759 | 26917 ft | 452 kts | 156° |
| 2026-05-07 07:40 | 38.39289 | 13.88809 | 26920 ft | 453 kts | 156° |
| 2026-05-07 07:40 | 38.36575 | 13.90862 | 26928 ft | 454 kts | 156° |
| 2026-05-07 07:40 | 38.33854 | 13.92917 | 26930 ft | 455 kts | 156° |
| 2026-05-07 07:41 | 38.31131 | 13.94973 | 26924 ft | 455 kts | 156° |
| 2026-05-07 07:41 | 38.28402 | 13.97032 | 26922 ft | 456 kts | 156° |
| 2026-05-07 07:41 | 38.25671 | 13.99090 | 26910 ft | 457 kts | 156° |
| 2026-05-07 07:41 | 38.23059 | 14.01056 | 26920 ft | 458 kts | 156° |
| 2026-05-07 07:42 | 38.20313 | 14.03121 | 26929 ft | 459 kts | 156° |
| 2026-05-07 07:42 | 38.17562 | 14.05189 | 26932 ft | 460 kts | 156° |
| 2026-05-07 07:42 | 38.14800 | 14.07263 | 26930 ft | 461 kts | 156° |
| 2026-05-07 07:42 | 38.12036 | 14.09337 | 26928 ft | 462 kts | 156° |
| 2026-05-07 07:43 | 38.10222 | 14.10698 | 26925 ft | 462 kts | 156° |
| 2026-05-07 07:43 | 38.06549 | 14.13450 | 26930 ft | 462 kts | 156° |
| 2026-05-07 07:43 | 38.03784 | 14.15520 | 26930 ft | 462 kts | 156° |
| 2026-05-07 07:43 | 38.01018 | 14.17589 | 26903 ft | 461 kts | 157° |
| 2026-05-07 07:44 | 37.99164 | 14.18974 | 26941 ft | 461 kts | 157° |
| 2026-05-07 07:44 | 37.96395 | 14.21041 | 26934 ft | 463 kts | 157° |
| 2026-05-07 07:44 | 37.93621 | 14.23109 | 26909 ft | 463 kts | 157° |
| 2026-05-07 07:44 | 37.90847 | 14.25177 | 26944 ft | 462 kts | 157° |
| 2026-05-07 07:45 | 37.88080 | 14.27237 | 26940 ft | 462 kts | 157° |
| 2026-05-07 07:45 | 37.85302 | 14.29304 | 26945 ft | 463 kts | 157° |
| 2026-05-07 07:45 | 37.82563 | 14.31340 | 26948 ft | 464 kts | 157° |
| 2026-05-07 07:45 | 37.79756 | 14.33424 | 26955 ft | 465 kts | 157° |
| 2026-05-07 07:46 | 37.76997 | 14.35471 | 26921 ft | 466 kts | 157° |
| 2026-05-07 07:46 | 37.74201 | 14.37544 | 26939 ft | 465 kts | 158° |
| 2026-05-07 07:46 | 37.71412 | 14.39611 | 26938 ft | 466 kts | 158° |
| 2026-05-07 07:46 | 37.68778 | 14.41561 | 26948 ft | 466 kts | 158° |
| 2026-05-07 07:47 | 37.65984 | 14.43629 | 26947 ft | 465 kts | 158° |
| 2026-05-07 07:47 | 37.63190 | 14.45693 | 26945 ft | 465 kts | 157° |
| 2026-05-07 07:47 | 37.60398 | 14.47757 | 26946 ft | 465 kts | 157° |
| 2026-05-07 07:47 | 37.57645 | 14.49793 | 26942 ft | 465 kts | 158° |
| 2026-05-07 07:48 | 37.54824 | 14.51880 | 26953 ft | 464 kts | 158° |
| 2026-05-07 07:48 | 37.52075 | 14.53914 | 26955 ft | 464 kts | 158° |
| 2026-05-07 07:48 | 37.49308 | 14.55963 | 26960 ft | 464 kts | 157° |
| 2026-05-07 07:48 | 37.46522 | 14.58020 | 26750 ft | 466 kts | 157° |
| 2026-05-07 07:49 | 37.43732 | 14.60074 | 26248 ft | 462 kts | 157° |
| 2026-05-07 07:49 | 37.40975 | 14.62097 | 25794 ft | 455 kts | 157° |
| 2026-05-07 07:49 | 37.38256 | 14.64078 | 25343 ft | 449 kts | 157° |
| 2026-05-07 07:49 | 37.35570 | 14.66013 | 24905 ft | 442 kts | 157° |
| 2026-05-07 07:50 | 37.32936 | 14.67891 | 24467 ft | 436 kts | 157° |
| 2026-05-07 07:50 | 37.30310 | 14.69763 | 24035 ft | 432 kts | 154° |
| 2026-05-07 07:50 | 37.27835 | 14.71898 | 23614 ft | 430 kts | 149° |
| 2026-05-07 07:50 | 37.25430 | 14.74102 | 23075 ft | 425 kts | 149° |
| 2026-05-07 07:51 | 37.23052 | 14.76266 | 22576 ft | 420 kts | 149° |
| 2026-05-07 07:51 | 37.20715 | 14.78389 | 22364 ft | 408 kts | 149° |
| 2026-05-07 07:51 | 37.18465 | 14.80439 | 22328 ft | 392 kts | 150° |
| 2026-05-07 07:51 | 37.16298 | 14.82423 | 22103 ft | 383 kts | 149° |
| 2026-05-07 07:52 | 37.14135 | 14.84395 | 21563 ft | 384 kts | 149° |
| 2026-05-07 07:52 | 37.11979 | 14.86350 | 21071 ft | 383 kts | 149° |
| 2026-05-07 07:52 | 37.09819 | 14.88301 | 20582 ft | 382 kts | 149° |
| 2026-05-07 07:52 | 37.07944 | 14.89989 | 20164 ft | 381 kts | 150° |
| 2026-05-07 07:53 | 37.05786 | 14.91930 | 19693 ft | 380 kts | 149° |
| 2026-05-07 07:53 | 37.03639 | 14.93857 | 19211 ft | 378 kts | 150° |
| 2026-05-07 07:53 | 37.01505 | 14.95768 | 18746 ft | 377 kts | 150° |
| 2026-05-07 07:53 | 36.99386 | 14.97661 | 18161 ft | 378 kts | 149° |
| 2026-05-07 07:54 | 36.97361 | 14.99449 | 17463 ft | 382 kts | 149° |
| 2026-05-07 07:54 | 36.95381 | 15.01188 | 16805 ft | 384 kts | 150° |
| 2026-05-07 07:54 | 36.93196 | 15.03110 | 16070 ft | 385 kts | 150° |
| 2026-05-07 07:54 | 36.90999 | 15.05037 | 15365 ft | 386 kts | 149° |
| 2026-05-07 07:55 | 36.88794 | 15.06950 | 14678 ft | 385 kts | 150° |
| 2026-05-07 07:55 | 36.86471 | 15.08533 | 13978 ft | 377 kts | 165° |
| 2026-05-07 07:55 | 36.83971 | 15.09064 | 13265 ft | 368 kts | 183° |
| 2026-05-07 07:55 | 36.81461 | 15.08458 | 12515 ft | 362 kts | 202° |
| 2026-05-07 07:56 | 36.79306 | 15.06946 | 11820 ft | 359 kts | 213° |
| 2026-05-07 07:56 | 36.77275 | 15.05144 | 11119 ft | 358 kts | 215° |
| 2026-05-07 07:56 | 36.75288 | 15.03296 | 10576 ft | 353 kts | 216° |
| 2026-05-07 07:56 | 36.73367 | 15.01503 | 10421 ft | 337 kts | 216° |
| 2026-05-07 07:57 | 36.71532 | 14.99794 | 10293 ft | 322 kts | 216° |
| 2026-05-07 07:57 | 36.69755 | 14.98136 | 10156 ft | 308 kts | 216° |
| 2026-05-07 07:57 | 36.68101 | 14.96592 | 10125 ft | 293 kts | 216° |
| 2026-05-07 07:57 | 36.66516 | 14.95110 | 10096 ft | 278 kts | 216° |
| 2026-05-07 07:58 | 36.65007 | 14.93701 | 10100 ft | 264 kts | 216° |
| 2026-05-07 07:58 | 36.63576 | 14.92359 | 10082 ft | 251 kts | 216° |
| 2026-05-07 07:58 | 36.62219 | 14.91083 | 10100 ft | 238 kts | 216° |
| 2026-05-07 07:58 | 36.61037 | 14.89966 | 9822 ft | 238 kts | 216° |
| 2026-05-07 07:59 | 36.59662 | 14.88657 | 9289 ft | 247 kts | 216° |
| 2026-05-07 07:59 | 36.58303 | 14.87355 | 8817 ft | 253 kts | 215° |
| 2026-05-07 07:59 | 36.56890 | 14.86002 | 8304 ft | 260 kts | 216° |
| 2026-05-07 07:59 | 36.55443 | 14.84618 | 7832 ft | 265 kts | 215° |
| 2026-05-07 08:00 | 36.53979 | 14.83196 | 7351 ft | 269 kts | 217° |
| 2026-05-07 08:00 | 36.52465 | 14.81805 | 6892 ft | 272 kts | 216° |
| 2026-05-07 08:00 | 36.50924 | 14.80433 | 6420 ft | 274 kts | 216° |
| 2026-05-07 08:00 | 36.49365 | 14.79049 | 5926 ft | 276 kts | 215° |
| 2026-05-07 08:01 | 36.47929 | 14.77457 | 5409 ft | 281 kts | 231° |
| 2026-05-07 08:01 | 36.47136 | 14.75222 | 4940 ft | 291 kts | 253° |
| 2026-05-07 08:01 | 36.47117 | 14.72656 | 4461 ft | 302 kts | 269° |
| 2026-05-07 08:01 | 36.47324 | 14.70051 | 3957 ft | 305 kts | 268° |
| 2026-05-07 08:02 | 36.47559 | 14.67405 | 3462 ft | 310 kts | 270° |
| 2026-05-07 08:02 | 36.47799 | 14.64731 | 3069 ft | 311 kts | 271° |
| 2026-05-07 08:02 | 36.48019 | 14.62108 | 2971 ft | 300 kts | 271° |
| 2026-05-07 08:02 | 36.48226 | 14.59585 | 2943 ft | 287 kts | 271° |
| 2026-05-07 08:03 | 36.48433 | 14.57165 | 2933 ft | 275 kts | 270° |
| 2026-05-07 08:03 | 36.48629 | 14.54913 | 2931 ft | 262 kts | 271° |
| 2026-05-07 08:03 | 36.48822 | 14.52715 | 2937 ft | 251 kts | 271° |
| 2026-05-07 08:03 | 36.49012 | 14.50603 | 2961 ft | 246 kts | 270° |
| 2026-05-07 08:04 | 36.49214 | 14.48491 | 2956 ft | 248 kts | 270° |
| 2026-05-07 08:04 | 36.49600 | 14.46424 | 2933 ft | 253 kts | 292° |
| 2026-05-07 08:04 | 36.50709 | 14.44759 | 2949 ft | 250 kts | 327° |
| 2026-05-07 08:04 | 36.52310 | 14.43979 | 2976 ft | 244 kts | 354° |
| 2026-05-07 08:05 | 36.53971 | 14.43564 | 2936 ft | 246 kts | 352° |
| 2026-05-07 08:05 | 36.55645 | 14.43101 | 2945 ft | 247 kts | 353° |
| 2026-05-07 08:05 | 36.57332 | 14.42637 | 2953 ft | 248 kts | 353° |
| 2026-05-07 08:05 | 36.59022 | 14.42169 | 2960 ft | 249 kts | 353° |
| 2026-05-07 08:06 | 36.60707 | 14.41692 | 2936 ft | 248 kts | 353° |
| 2026-05-07 08:06 | 36.62367 | 14.41190 | 2936 ft | 243 kts | 353° |
| 2026-05-07 08:06 | 36.64016 | 14.40681 | 2937 ft | 246 kts | 353° |
| 2026-05-07 08:06 | 36.65688 | 14.40154 | 2961 ft | 250 kts | 353° |
| 2026-05-07 08:07 | 36.67376 | 14.39610 | 2969 ft | 251 kts | 353° |
| 2026-05-07 08:07 | 36.69052 | 14.39085 | 2946 ft | 246 kts | 352° |
| 2026-05-07 08:07 | 36.70711 | 14.38580 | 2964 ft | 245 kts | 353° |
| 2026-05-07 08:07 | 36.72372 | 14.38074 | 2956 ft | 247 kts | 353° |
| 2026-05-07 08:08 | 36.74054 | 14.37542 | 2973 ft | 250 kts | 353° |
| 2026-05-07 08:08 | 36.75747 | 14.37006 | 2975 ft | 253 kts | 353° |
| 2026-05-07 08:08 | 36.77449 | 14.36620 | 2942 ft | 241 kts | 9° |
| 2026-05-07 08:08 | 36.79054 | 14.36872 | 2983 ft | 231 kts | 18° |
| 2026-05-07 08:09 | 36.80662 | 14.37120 | 2971 ft | 235 kts | 15° |
| 2026-05-07 08:09 | 36.82264 | 14.37338 | 2965 ft | 234 kts | 15° |
| 2026-05-07 08:09 | 36.83868 | 14.37584 | 2941 ft | 230 kts | 19° |
| 2026-05-07 08:09 | 36.85230 | 14.38364 | 2952 ft | 205 kts | 55° |
| 2026-05-07 08:10 | 36.85893 | 14.39818 | 2984 ft | 191 kts | 74° |
| 2026-05-07 08:10 | 36.86578 | 14.41278 | 2975 ft | 199 kts | 62° |
| 2026-05-07 08:10 | 36.87424 | 14.42604 | 2954 ft | 190 kts | 60° |
| 2026-05-07 08:10 | 36.88240 | 14.43828 | 2947 ft | 177 kts | 60° |
| 2026-05-07 08:11 | 36.89022 | 14.45006 | 2961 ft | 176 kts | 60° |
| 2026-05-07 08:11 | 36.89797 | 14.46175 | 2971 ft | 173 kts | 60° |
| 2026-05-07 08:11 | 36.90563 | 14.47324 | 2959 ft | 169 kts | 61° |
| 2026-05-07 08:11 | 36.91291 | 14.48419 | 2928 ft | 159 kts | 62° |
| 2026-05-07 08:12 | 36.91989 | 14.49470 | 2776 ft | 156 kts | 61° |
| 2026-05-07 08:12 | 36.92671 | 14.50503 | 2577 ft | 152 kts | 60° |
| 2026-05-07 08:12 | 36.93276 | 14.51409 | 2396 ft | 147 kts | 60° |
| 2026-05-07 08:12 | 36.93928 | 14.52392 | 2200 ft | 148 kts | 59° |
| 2026-05-07 08:13 | 36.94581 | 14.53365 | 2001 ft | 143 kts | 59° |
| 2026-05-07 08:13 | 36.95189 | 14.54284 | 1819 ft | 136 kts | 59° |
| 2026-05-07 08:13 | 36.95780 | 14.55150 | 1658 ft | 135 kts | 56° |
| 2026-05-07 08:13 | 36.96370 | 14.56053 | 1476 ft | 135 kts | 58° |
| 2026-05-07 08:14 | 36.96931 | 14.56943 | 1304 ft | 127 kts | 56° |
| 2026-05-07 08:14 | 36.97538 | 14.57797 | 1137 ft | 137 kts | 52° |
| 2026-05-07 08:14 | 36.98140 | 14.58737 | 965 ft | 142 kts | 53° |
| 2026-05-07 08:14 | 36.98761 | 14.59678 | 785 ft | 135 kts | 53° |
| 2026-05-07 08:15 | 36.99334 | 14.60534 | 719 ft | 119 kts | 50° |
| 2026-05-07 08:15 | 36.99780 | 14.61247 | 710 ft | 87 kts | 53° |
| 2026-05-07 08:15 | 37.00083 | 14.61711 | 713 ft | 51 kts | 45° |
| 2026-05-07 08:15 | 37.00247 | 14.61918 | 709 ft | 15 kts | 26° |
| 2026-05-07 08:16 | 37.00268 | 14.61910 | 711 ft | 0 kts | 302° |
| 2026-05-07 08:16 | 37.00264 | 14.61871 | 709 ft | 13 kts | 254° |
| 2026-05-07 08:16 | 37.00348 | 14.61718 | 717 ft | 32 kts | 316° |
| 2026-05-07 08:16 | 37.00410 | 14.61650 | 724 ft | 0 kts | 258° |
| 2026-05-07 08:17 | 36.99789 | 14.60743 | 716 ft | 0 kts | 351° |